sensor_id;sensor_type;location;lat;lon;timestamp;P1;durP1;ratioP1;P2;durP2;ratioP2
40367;SDS011;26075;43.320;21.920;2022-07-03T00:02:05;7.90;;;6.72;;
40367;SDS011;26075;43.320;21.920;2022-07-03T00:07:06;9.55;;;7.15;;
40367;SDS011;26075;43.320;21.920;2022-07-03T00:12:07;9.52;;;6.30;;
40367;SDS011;26075;43.320;21.920;2022-07-03T00:17:08;7.35;;;6.20;;
40367;SDS011;26075;43.320;21.920;2022-07-03T00:22:11;8.80;;;7.53;;
40367;SDS011;26075;43.320;21.920;2022-07-03T00:27:12;8.23;;;7.07;;
40367;SDS011;26075;43.320;21.920;2022-07-03T00:32:24;8.93;;;6.95;;
40367;SDS011;26075;43.320;21.920;2022-07-03T00:37:25;12.20;;;7.20;;
40367;SDS011;26075;43.320;21.920;2022-07-03T00:42:26;8.88;;;6.20;;
40367;SDS011;26075;43.320;21.920;2022-07-03T00:47:28;9.60;;;6.55;;
40367;SDS011;26075;43.320;21.920;2022-07-03T00:52:29;8.45;;;6.35;;
40367;SDS011;26075;43.320;21.920;2022-07-03T00:57:31;9.55;;;7.03;;
40367;SDS011;26075;43.320;21.920;2022-07-03T01:22:58;8.32;;;6.38;;
40367;SDS011;26075;43.320;21.920;2022-07-03T01:33:17;9.32;;;6.45;;
40367;SDS011;26075;43.320;21.920;2022-07-03T01:38:18;9.50;;;6.10;;
40367;SDS011;26075;43.320;21.920;2022-07-03T01:43:25;8.52;;;6.38;;
40367;SDS011;26075;43.320;21.920;2022-07-03T01:48:29;7.88;;;5.82;;
40367;SDS011;26075;43.320;21.920;2022-07-03T01:53:30;8.90;;;5.70;;
40367;SDS011;26075;43.320;21.920;2022-07-03T01:58:31;8.73;;;5.70;;
40367;SDS011;26075;43.320;21.920;2022-07-03T02:03:33;6.70;;;5.57;;
40367;SDS011;26075;43.320;21.920;2022-07-03T02:13:50;9.98;;;5.68;;
40367;SDS011;26075;43.320;21.920;2022-07-03T02:19:05;7.40;;;5.22;;
40367;SDS011;26075;43.320;21.920;2022-07-03T02:24:27;7.55;;;5.80;;
40367;SDS011;26075;43.320;21.920;2022-07-03T02:29:49;7.03;;;6.10;;
40367;SDS011;26075;43.320;21.920;2022-07-03T02:34:58;7.97;;;5.38;;
40367;SDS011;26075;43.320;21.920;2022-07-03T02:45:02;8.88;;;6.47;;
40367;SDS011;26075;43.320;21.920;2022-07-03T02:50:05;7.47;;;5.60;;
40367;SDS011;26075;43.320;21.920;2022-07-03T02:55:26;6.88;;;5.25;;
40367;SDS011;26075;43.320;21.920;2022-07-03T03:00:35;6.68;;;5.50;;
40367;SDS011;26075;43.320;21.920;2022-07-03T03:05:40;6.32;;;5.65;;
40367;SDS011;26075;43.320;21.920;2022-07-03T03:10:44;6.80;;;5.65;;
40367;SDS011;26075;43.320;21.920;2022-07-03T03:16:28;6.72;;;5.25;;
40367;SDS011;26075;43.320;21.920;2022-07-03T03:21:11;7.13;;;5.65;;
40367;SDS011;26075;43.320;21.920;2022-07-03T03:26:23;6.05;;;5.00;;
40367;SDS011;26075;43.320;21.920;2022-07-03T03:31:24;5.82;;;4.90;;
40367;SDS011;26075;43.320;21.920;2022-07-03T03:36:26;5.38;;;4.57;;
40367;SDS011;26075;43.320;21.920;2022-07-03T03:41:27;8.68;;;5.32;;
40367;SDS011;26075;43.320;21.920;2022-07-03T03:46:28;9.30;;;5.43;;
40367;SDS011;26075;43.320;21.920;2022-07-03T03:51:30;7.70;;;5.40;;
40367;SDS011;26075;43.320;21.920;2022-07-03T03:56:35;6.00;;;5.10;;
40367;SDS011;26075;43.320;21.920;2022-07-03T04:01:36;5.82;;;4.82;;
40367;SDS011;26075;43.320;21.920;2022-07-03T04:06:37;7.10;;;5.00;;
40367;SDS011;26075;43.320;21.920;2022-07-03T04:11:38;6.47;;;4.55;;
40367;SDS011;26075;43.320;21.920;2022-07-03T04:16:39;7.30;;;5.22;;
40367;SDS011;26075;43.320;21.920;2022-07-03T04:21:40;8.45;;;5.97;;
40367;SDS011;26075;43.320;21.920;2022-07-03T04:26:42;8.95;;;5.63;;
40367;SDS011;26075;43.320;21.920;2022-07-03T04:31:43;7.13;;;4.95;;
40367;SDS011;26075;43.320;21.920;2022-07-03T04:36:51;6.32;;;4.75;;
40367;SDS011;26075;43.320;21.920;2022-07-03T04:41:52;6.85;;;4.60;;
40367;SDS011;26075;43.320;21.920;2022-07-03T04:46:59;6.78;;;4.47;;
40367;SDS011;26075;43.320;21.920;2022-07-03T04:52:06;6.05;;;4.60;;
40367;SDS011;26075;43.320;21.920;2022-07-03T04:57:08;8.20;;;5.03;;
40367;SDS011;26075;43.320;21.920;2022-07-03T05:02:09;6.78;;;4.93;;
40367;SDS011;26075;43.320;21.920;2022-07-03T05:07:10;6.28;;;5.65;;
40367;SDS011;26075;43.320;21.920;2022-07-03T05:12:11;6.65;;;4.88;;
40367;SDS011;26075;43.320;21.920;2022-07-03T05:17:18;7.55;;;4.93;;
40367;SDS011;26075;43.320;21.920;2022-07-03T05:22:19;7.05;;;5.32;;
40367;SDS011;26075;43.320;21.920;2022-07-03T05:27:28;10.07;;;5.45;;
40367;SDS011;26075;43.320;21.920;2022-07-03T05:32:29;6.35;;;5.00;;
40367;SDS011;26075;43.320;21.920;2022-07-03T05:37:30;6.43;;;4.85;;
40367;SDS011;26075;43.320;21.920;2022-07-03T05:42:31;6.10;;;5.00;;
40367;SDS011;26075;43.320;21.920;2022-07-03T05:47:32;6.78;;;5.00;;
40367;SDS011;26075;43.320;21.920;2022-07-03T05:52:33;5.85;;;4.80;;
40367;SDS011;26075;43.320;21.920;2022-07-03T05:57:34;5.90;;;4.93;;
40367;SDS011;26075;43.320;21.920;2022-07-03T06:02:35;7.15;;;5.03;;
40367;SDS011;26075;43.320;21.920;2022-07-03T06:07:36;5.72;;;4.45;;
40367;SDS011;26075;43.320;21.920;2022-07-03T06:12:37;6.53;;;4.82;;
40367;SDS011;26075;43.320;21.920;2022-07-03T06:17:38;5.43;;;4.40;;
40367;SDS011;26075;43.320;21.920;2022-07-03T06:22:39;8.20;;;4.75;;
40367;SDS011;26075;43.320;21.920;2022-07-03T06:27:40;5.68;;;4.90;;
40367;SDS011;26075;43.320;21.920;2022-07-03T06:32:42;5.72;;;4.28;;
40367;SDS011;26075;43.320;21.920;2022-07-03T06:37:43;5.35;;;4.30;;
40367;SDS011;26075;43.320;21.920;2022-07-03T06:42:44;6.63;;;5.07;;
40367;SDS011;26075;43.320;21.920;2022-07-03T06:47:45;6.30;;;4.68;;
40367;SDS011;26075;43.320;21.920;2022-07-03T06:52:46;9.25;;;5.38;;
40367;SDS011;26075;43.320;21.920;2022-07-03T06:57:47;6.97;;;4.75;;
40367;SDS011;26075;43.320;21.920;2022-07-03T07:02:48;6.43;;;5.10;;
40367;SDS011;26075;43.320;21.920;2022-07-03T07:07:49;9.80;;;5.25;;
40367;SDS011;26075;43.320;21.920;2022-07-03T07:12:50;6.72;;;5.63;;
40367;SDS011;26075;43.320;21.920;2022-07-03T07:17:51;7.93;;;5.47;;
40367;SDS011;26075;43.320;21.920;2022-07-03T07:22:52;10.52;;;5.30;;
40367;SDS011;26075;43.320;21.920;2022-07-03T07:27:53;6.90;;;5.57;;
40367;SDS011;26075;43.320;21.920;2022-07-03T07:32:54;7.80;;;5.80;;
40367;SDS011;26075;43.320;21.920;2022-07-03T07:37:55;8.32;;;5.35;;
40367;SDS011;26075;43.320;21.920;2022-07-03T07:42:56;9.13;;;5.40;;
40367;SDS011;26075;43.320;21.920;2022-07-03T07:48:00;9.13;;;6.53;;
40367;SDS011;26075;43.320;21.920;2022-07-03T07:53:03;13.85;;;7.05;;
40367;SDS011;26075;43.320;21.920;2022-07-03T07:58:07;7.85;;;5.88;;
40367;SDS011;26075;43.320;21.920;2022-07-03T08:03:08;6.47;;;5.38;;
40367;SDS011;26075;43.320;21.920;2022-07-03T08:08:28;7.70;;;6.25;;
40367;SDS011;26075;43.320;21.920;2022-07-03T08:13:29;16.50;;;7.97;;
40367;SDS011;26075;43.320;21.920;2022-07-03T08:18:30;11.10;;;6.95;;
40367;SDS011;26075;43.320;21.920;2022-07-03T08:23:31;8.50;;;6.70;;
40367;SDS011;26075;43.320;21.920;2022-07-03T08:28:38;13.38;;;8.50;;
40367;SDS011;26075;43.320;21.920;2022-07-03T08:33:39;13.18;;;6.90;;
40367;SDS011;26075;43.320;21.920;2022-07-03T08:38:40;8.25;;;6.57;;
40367;SDS011;26075;43.320;21.920;2022-07-03T08:43:41;8.93;;;7.28;;
40367;SDS011;26075;43.320;21.920;2022-07-03T08:48:42;9.75;;;7.53;;
40367;SDS011;26075;43.320;21.920;2022-07-03T08:53:44;9.23;;;7.05;;
40367;SDS011;26075;43.320;21.920;2022-07-03T08:58:47;9.23;;;7.40;;
40367;SDS011;26075;43.320;21.920;2022-07-03T09:03:48;11.00;;;7.68;;
40367;SDS011;26075;43.320;21.920;2022-07-03T09:08:51;11.73;;;7.80;;
40367;SDS011;26075;43.320;21.920;2022-07-03T09:13:52;9.50;;;6.60;;
40367;SDS011;26075;43.320;21.920;2022-07-03T09:18:55;8.18;;;7.28;;
40367;SDS011;26075;43.320;21.920;2022-07-03T09:23:56;8.05;;;7.07;;
40367;SDS011;26075;43.320;21.920;2022-07-03T09:29:03;9.70;;;8.55;;
40367;SDS011;26075;43.320;21.920;2022-07-03T09:34:06;14.50;;;7.60;;
40367;SDS011;26075;43.320;21.920;2022-07-03T09:39:41;9.07;;;7.45;;
40367;SDS011;26075;43.320;21.920;2022-07-03T09:44:40;9.73;;;7.82;;
40367;SDS011;26075;43.320;21.920;2022-07-03T09:49:48;14.30;;;8.43;;
40367;SDS011;26075;43.320;21.920;2022-07-03T09:54:54;11.52;;;7.60;;
40367;SDS011;26075;43.320;21.920;2022-07-03T10:00:18;10.23;;;7.68;;
40367;SDS011;26075;43.320;21.920;2022-07-03T10:05:18;11.77;;;8.07;;
40367;SDS011;26075;43.320;21.920;2022-07-03T10:10:19;13.10;;;9.55;;
40367;SDS011;26075;43.320;21.920;2022-07-03T10:15:23;13.18;;;8.98;;
40367;SDS011;26075;43.320;21.920;2022-07-03T10:25:26;11.52;;;8.63;;
40367;SDS011;26075;43.320;21.920;2022-07-03T10:30:27;11.80;;;9.20;;
40367;SDS011;26075;43.320;21.920;2022-07-03T10:40:55;11.65;;;8.30;;
40367;SDS011;26075;43.320;21.920;2022-07-03T10:46:17;12.30;;;8.40;;
40367;SDS011;26075;43.320;21.920;2022-07-03T10:51:18;12.02;;;8.27;;
40367;SDS011;26075;43.320;21.920;2022-07-03T10:56:25;14.82;;;8.77;;
40367;SDS011;26075;43.320;21.920;2022-07-03T11:01:26;10.07;;;7.95;;
40367;SDS011;26075;43.320;21.920;2022-07-03T11:11:51;10.55;;;7.25;;
40367;SDS011;26075;43.320;21.920;2022-07-03T11:22:21;9.23;;;7.28;;
40367;SDS011;26075;43.320;21.920;2022-07-03T11:27:27;10.45;;;7.60;;
40367;SDS011;26075;43.320;21.920;2022-07-03T11:37:52;10.95;;;9.40;;
40367;SDS011;26075;43.320;21.920;2022-07-03T11:42:55;9.23;;;7.78;;
40367;SDS011;26075;43.320;21.920;2022-07-03T11:47:56;11.30;;;8.43;;
40367;SDS011;26075;43.320;21.920;2022-07-03T11:52:57;10.35;;;7.90;;
40367;SDS011;26075;43.320;21.920;2022-07-03T11:58:01;8.98;;;8.07;;
40367;SDS011;26075;43.320;21.920;2022-07-03T12:03:02;12.38;;;8.13;;
40367;SDS011;26075;43.320;21.920;2022-07-03T12:08:04;9.82;;;8.20;;
40367;SDS011;26075;43.320;21.920;2022-07-03T12:13:18;8.95;;;7.32;;
40367;SDS011;26075;43.320;21.920;2022-07-03T12:18:21;15.52;;;9.02;;
40367;SDS011;26075;43.320;21.920;2022-07-03T12:23:22;10.00;;;8.75;;
40367;SDS011;26075;43.320;21.920;2022-07-03T12:28:24;11.63;;;9.00;;
40367;SDS011;26075;43.320;21.920;2022-07-03T12:33:25;13.18;;;9.38;;
40367;SDS011;26075;43.320;21.920;2022-07-03T12:38:30;13.73;;;8.55;;
40367;SDS011;26075;43.320;21.920;2022-07-03T12:43:40;11.68;;;8.05;;
40367;SDS011;26075;43.320;21.920;2022-07-03T12:48:57;12.10;;;8.10;;
40367;SDS011;26075;43.320;21.920;2022-07-03T12:53:58;9.65;;;7.72;;
40367;SDS011;26075;43.320;21.920;2022-07-03T12:59:01;9.95;;;8.27;;
40367;SDS011;26075;43.320;21.920;2022-07-03T13:04:29;10.05;;;8.05;;
40367;SDS011;26075;43.320;21.920;2022-07-03T13:09:30;8.82;;;7.70;;
40367;SDS011;26075;43.320;21.920;2022-07-03T13:14:31;18.48;;;9.85;;
40367;SDS011;26075;43.320;21.920;2022-07-03T13:19:32;9.48;;;8.30;;
40367;SDS011;26075;43.320;21.920;2022-07-03T13:24:33;11.13;;;10.02;;
40367;SDS011;26075;43.320;21.920;2022-07-03T13:29:34;11.30;;;8.38;;
40367;SDS011;26075;43.320;21.920;2022-07-03T13:34:35;12.45;;;9.80;;
40367;SDS011;26075;43.320;21.920;2022-07-03T13:39:36;11.93;;;8.02;;
40367;SDS011;26075;43.320;21.920;2022-07-03T13:44:37;8.82;;;7.93;;
40367;SDS011;26075;43.320;21.920;2022-07-03T13:49:41;8.82;;;7.00;;
40367;SDS011;26075;43.320;21.920;2022-07-03T13:54:42;9.23;;;6.77;;
40367;SDS011;26075;43.320;21.920;2022-07-03T13:59:43;14.48;;;7.55;;
40367;SDS011;26075;43.320;21.920;2022-07-03T14:04:44;11.77;;;7.20;;
40367;SDS011;26075;43.320;21.920;2022-07-03T14:09:45;11.75;;;7.85;;
40367;SDS011;26075;43.320;21.920;2022-07-03T14:14:46;8.65;;;7.28;;
40367;SDS011;26075;43.320;21.920;2022-07-03T14:19:47;9.00;;;7.57;;
40367;SDS011;26075;43.320;21.920;2022-07-03T14:24:48;10.18;;;7.38;;
40367;SDS011;26075;43.320;21.920;2022-07-03T14:29:49;12.80;;;7.65;;
40367;SDS011;26075;43.320;21.920;2022-07-03T14:35:09;16.60;;;14.82;;
40367;SDS011;26075;43.320;21.920;2022-07-03T14:40:10;14.85;;;8.30;;
40367;SDS011;26075;43.320;21.920;2022-07-03T14:45:11;8.55;;;7.30;;
40367;SDS011;26075;43.320;21.920;2022-07-03T14:50:12;10.63;;;8.77;;
40367;SDS011;26075;43.320;21.920;2022-07-03T14:55:13;12.85;;;9.13;;
40367;SDS011;26075;43.320;21.920;2022-07-03T15:00:14;11.82;;;9.52;;
40367;SDS011;26075;43.320;21.920;2022-07-03T15:10:42;9.32;;;8.23;;
40367;SDS011;26075;43.320;21.920;2022-07-03T15:15:47;11.45;;;9.65;;
40367;SDS011;26075;43.320;21.920;2022-07-03T15:20:49;10.25;;;8.27;;
40367;SDS011;26075;43.320;21.920;2022-07-03T15:25:50;14.57;;;9.65;;
40367;SDS011;26075;43.320;21.920;2022-07-03T15:30:52;15.02;;;9.68;;
40367;SDS011;26075;43.320;21.920;2022-07-03T15:36:05;9.35;;;8.25;;
40367;SDS011;26075;43.320;21.920;2022-07-03T15:41:06;16.63;;;11.45;;
40367;SDS011;26075;43.320;21.920;2022-07-03T15:46:21;11.90;;;9.65;;
40367;SDS011;26075;43.320;21.920;2022-07-03T15:56:37;14.00;;;10.15;;
40367;SDS011;26075;43.320;21.920;2022-07-03T16:02:03;11.35;;;8.80;;
40367;SDS011;26075;43.320;21.920;2022-07-03T16:07:12;9.93;;;8.52;;
40367;SDS011;26075;43.320;21.920;2022-07-03T16:12:15;10.55;;;8.25;;
40367;SDS011;26075;43.320;21.920;2022-07-03T16:17:22;12.98;;;8.75;;
40367;SDS011;26075;43.320;21.920;2022-07-03T16:22:24;11.07;;;9.38;;
40367;SDS011;26075;43.320;21.920;2022-07-03T16:27:27;11.48;;;9.10;;
40367;SDS011;26075;43.320;21.920;2022-07-03T16:32:39;16.52;;;10.18;;
40367;SDS011;26075;43.320;21.920;2022-07-03T16:42:45;14.40;;;8.75;;
40367;SDS011;26075;43.320;21.920;2022-07-03T16:47:49;12.30;;;7.88;;
40367;SDS011;26075;43.320;21.920;2022-07-03T16:52:51;9.80;;;7.53;;
40367;SDS011;26075;43.320;21.920;2022-07-03T16:57:53;11.35;;;7.78;;
40367;SDS011;26075;43.320;21.920;2022-07-03T17:02:55;15.30;;;8.95;;
40367;SDS011;26075;43.320;21.920;2022-07-03T17:07:56;14.90;;;12.32;;
40367;SDS011;26075;43.320;21.920;2022-07-03T17:12:59;14.18;;;10.15;;
40367;SDS011;26075;43.320;21.920;2022-07-03T17:18:04;14.40;;;7.80;;
40367;SDS011;26075;43.320;21.920;2022-07-03T17:28:07;10.90;;;8.32;;
40367;SDS011;26075;43.320;21.920;2022-07-03T17:33:08;11.93;;;8.75;;
40367;SDS011;26075;43.320;21.920;2022-07-03T17:38:14;11.25;;;8.95;;
40367;SDS011;26075;43.320;21.920;2022-07-03T17:43:29;13.70;;;9.07;;
40367;SDS011;26075;43.320;21.920;2022-07-03T17:53:45;10.85;;;8.55;;
40367;SDS011;26075;43.320;21.920;2022-07-03T17:58:49;17.67;;;11.35;;
40367;SDS011;26075;43.320;21.920;2022-07-03T18:03:54;13.70;;;9.53;;
40367;SDS011;26075;43.320;21.920;2022-07-03T18:09:07;13.77;;;11.40;;
40367;SDS011;26075;43.320;21.920;2022-07-03T18:14:12;15.10;;;11.60;;
40367;SDS011;26075;43.320;21.920;2022-07-03T18:19:13;14.38;;;10.25;;
40367;SDS011;26075;43.320;21.920;2022-07-03T18:24:16;14.05;;;10.85;;
40367;SDS011;26075;43.320;21.920;2022-07-03T18:29:21;15.60;;;10.75;;
40367;SDS011;26075;43.320;21.920;2022-07-03T18:34:23;16.63;;;11.45;;
40367;SDS011;26075;43.320;21.920;2022-07-03T18:39:38;14.02;;;11.60;;
40367;SDS011;26075;43.320;21.920;2022-07-03T18:44:40;16.20;;;10.95;;
40367;SDS011;26075;43.320;21.920;2022-07-03T18:49:42;18.15;;;12.35;;
40367;SDS011;26075;43.320;21.920;2022-07-03T18:54:46;27.13;;;19.90;;
40367;SDS011;26075;43.320;21.920;2022-07-03T19:05:02;24.35;;;13.45;;
40367;SDS011;26075;43.320;21.920;2022-07-03T19:10:06;16.55;;;11.00;;
40367;SDS011;26075;43.320;21.920;2022-07-03T19:15:08;12.63;;;10.85;;
40367;SDS011;26075;43.320;21.920;2022-07-03T19:20:09;16.38;;;11.38;;
40367;SDS011;26075;43.320;21.920;2022-07-03T19:25:11;16.02;;;10.77;;
40367;SDS011;26075;43.320;21.920;2022-07-03T19:30:13;12.65;;;9.77;;
40367;SDS011;26075;43.320;21.920;2022-07-03T19:35:21;11.10;;;9.65;;
40367;SDS011;26075;43.320;21.920;2022-07-03T19:40:22;13.02;;;9.80;;
40367;SDS011;26075;43.320;21.920;2022-07-03T19:50:40;13.25;;;11.40;;
40367;SDS011;26075;43.320;21.920;2022-07-03T19:55:41;15.88;;;11.20;;
40367;SDS011;26075;43.320;21.920;2022-07-03T20:00:42;13.70;;;10.18;;
40367;SDS011;26075;43.320;21.920;2022-07-03T20:05:43;16.70;;;10.80;;
40367;SDS011;26075;43.320;21.920;2022-07-03T20:10:44;17.15;;;11.55;;
40367;SDS011;26075;43.320;21.920;2022-07-03T20:15:58;16.63;;;12.88;;
40367;SDS011;26075;43.320;21.920;2022-07-03T20:20:59;16.23;;;11.93;;
40367;SDS011;26075;43.320;21.920;2022-07-03T20:26:00;16.80;;;12.85;;
40367;SDS011;26075;43.320;21.920;2022-07-03T20:31:03;25.02;;;14.93;;
40367;SDS011;26075;43.320;21.920;2022-07-03T20:36:04;18.08;;;12.82;;
40367;SDS011;26075;43.320;21.920;2022-07-03T20:41:06;14.65;;;11.90;;
40367;SDS011;26075;43.320;21.920;2022-07-03T20:46:08;12.05;;;10.75;;
40367;SDS011;26075;43.320;21.920;2022-07-03T20:51:09;13.45;;;10.18;;
40367;SDS011;26075;43.320;21.920;2022-07-03T20:56:10;12.57;;;10.40;;
40367;SDS011;26075;43.320;21.920;2022-07-03T21:01:11;16.48;;;11.63;;
40367;SDS011;26075;43.320;21.920;2022-07-03T21:06:12;16.27;;;12.90;;
40367;SDS011;26075;43.320;21.920;2022-07-03T21:11:29;14.30;;;11.68;;
40367;SDS011;26075;43.320;21.920;2022-07-03T21:16:37;14.32;;;10.73;;
40367;SDS011;26075;43.320;21.920;2022-07-03T21:26:47;14.65;;;10.30;;
40367;SDS011;26075;43.320;21.920;2022-07-03T21:31:49;13.88;;;10.48;;
40367;SDS011;26075;43.320;21.920;2022-07-03T21:37:00;14.15;;;10.98;;
40367;SDS011;26075;43.320;21.920;2022-07-03T21:42:02;13.32;;;11.05;;
40367;SDS011;26075;43.320;21.920;2022-07-03T21:47:03;11.38;;;9.20;;
40367;SDS011;26075;43.320;21.920;2022-07-03T21:52:04;10.93;;;9.02;;
40367;SDS011;26075;43.320;21.920;2022-07-03T21:57:05;13.02;;;9.98;;
40367;SDS011;26075;43.320;21.920;2022-07-03T22:02:06;13.40;;;9.80;;
40367;SDS011;26075;43.320;21.920;2022-07-03T22:07:07;10.85;;;9.00;;
40367;SDS011;26075;43.320;21.920;2022-07-03T22:12:08;13.07;;;9.40;;
40367;SDS011;26075;43.320;21.920;2022-07-03T22:17:28;12.00;;;9.95;;
40367;SDS011;26075;43.320;21.920;2022-07-03T22:22:32;12.27;;;9.80;;
40367;SDS011;26075;43.320;21.920;2022-07-03T22:28:05;11.35;;;9.18;;
40367;SDS011;26075;43.320;21.920;2022-07-03T22:33:06;13.13;;;9.65;;
40367;SDS011;26075;43.320;21.920;2022-07-03T22:38:08;13.02;;;10.65;;
40367;SDS011;26075;43.320;21.920;2022-07-03T22:43:09;12.90;;;10.18;;
40367;SDS011;26075;43.320;21.920;2022-07-03T22:48:10;11.95;;;9.43;;
40367;SDS011;26075;43.320;21.920;2022-07-03T22:53:11;10.25;;;9.25;;
40367;SDS011;26075;43.320;21.920;2022-07-03T22:58:12;11.90;;;8.95;;
40367;SDS011;26075;43.320;21.920;2022-07-03T23:03:13;10.93;;;9.32;;
40367;SDS011;26075;43.320;21.920;2022-07-03T23:08:14;10.90;;;8.27;;
40367;SDS011;26075;43.320;21.920;2022-07-03T23:13:30;12.32;;;8.02;;
40367;SDS011;26075;43.320;21.920;2022-07-03T23:18:31;13.40;;;8.43;;
40367;SDS011;26075;43.320;21.920;2022-07-03T23:23:32;10.52;;;8.70;;
40367;SDS011;26075;43.320;21.920;2022-07-03T23:28:33;9.88;;;8.60;;
40367;SDS011;26075;43.320;21.920;2022-07-03T23:33:34;12.63;;;8.30;;
40367;SDS011;26075;43.320;21.920;2022-07-03T23:38:37;10.80;;;8.48;;
40367;SDS011;26075;43.320;21.920;2022-07-03T23:43:38;8.93;;;8.02;;
40367;SDS011;26075;43.320;21.920;2022-07-03T23:48:44;10.98;;;8.70;;
40367;SDS011;26075;43.320;21.920;2022-07-03T23:59:05;11.77;;;8.88;;
